Time;durP1;ratioP1;P1;durP2;ratioP2;P2;SDS_P1;SDS_P2;PMS_P1;PMS_P2;Temp;Humidity;BMP_temperature;BMP_pressure;BME280_temperature;BME280_humidity;BME280_pressure;Samples;Min_cycle;Max_cycle;Signal;HPM_P1;HPM_P2
2021/03/11 00:00:15;;;;;;;19.20;14.50;;;1.00;99.90;;;;;;4779998;29;20429;-81
2021/03/11 00:02:41;;;;;;;16.80;14.77;;;1.00;99.90;;;;;;4767893;29;21128;-79
2021/03/11 00:05:09;;;;;;;22.10;15.50;;;1.10;99.90;;;;;;4748336;30;20405;-76
2021/03/11 00:07:36;;;;;;;21.52;16.00;;;1.20;99.90;;;;;;4773825;29;20469;-77
2021/03/11 00:10:02;;;;;;;18.17;14.40;;;1.30;99.90;;;;;;4771866;29;20912;-77
2021/03/11 00:12:28;;;;;;;19.17;14.93;;;1.20;99.90;;;;;;4756364;29;20421;-76
2021/03/11 00:14:53;;;;;;;19.50;16.23;;;1.30;99.90;;;;;;4773670;29;20428;-77
2021/03/11 00:17:19;;;;;;;18.98;15.40;;;1.30;99.90;;;;;;4764686;29;20429;-77
2021/03/11 00:19:45;;;;;;;18.90;14.97;;;1.30;99.90;;;;;;4771679;29;20437;-77
2021/03/11 00:22:11;;;;;;;21.70;16.17;;;1.40;99.90;;;;;;4774030;29;20433;-77
2021/03/11 00:24:36;;;;;;;20.55;15.10;;;1.40;99.90;;;;;;4769695;29;20487;-76
2021/03/11 00:27:02;;;;;;;20.95;15.68;;;1.40;99.90;;;;;;4764878;29;20838;-77
2021/03/11 00:29:28;;;;;;;18.83;14.75;;;1.40;99.90;;;;;;4765906;29;20456;-76
2021/03/11 00:31:55;;;;;;;19.05;14.27;;;1.50;99.90;;;;;;4761915;29;20439;-77
2021/03/11 00:34:21;;;;;;;20.30;16.27;;;1.50;99.90;;;;;;4782897;29;20420;-76
2021/03/11 00:36:46;;;;;;;18.63;15.00;;;1.40;99.90;;;;;;4770950;29;20407;-78
2021/03/11 00:39:15;;;;;;;16.73;14.17;;;1.40;99.90;;;;;;4759966;30;20441;-77
2021/03/11 00:41:41;;;;;;;17.15;14.48;;;1.40;99.90;;;;;;4765365;29;20413;-77
2021/03/11 00:44:06;;;;;;;17.15;14.88;;;1.50;99.90;;;;;;4770990;29;20788;-77
2021/03/11 00:46:32;;;;;;;18.97;14.63;;;1.40;99.90;;;;;;4776082;29;20494;-76
2021/03/11 00:48:58;;;;;;;22.60;13.97;;;1.50;99.90;;;;;;4769175;29;20493;-76
2021/03/11 00:51:24;;;;;;;17.15;13.70;;;1.50;99.90;;;;;;4772179;29;20783;-77
2021/03/11 00:53:50;;;;;;;20.73;15.07;;;1.60;99.90;;;;;;4764985;30;20451;-76
2021/03/11 00:56:17;;;;;;;17.80;13.63;;;1.70;99.90;;;;;;4764369;29;20883;-77
2021/03/11 00:58:45;;;;;;;15.85;12.93;;;1.60;99.90;;;;;;4758452;29;20414;-76
2021/03/11 01:01:11;;;;;;;18.33;14.13;;;1.60;99.90;;;;;;4772371;29;20927;-77
2021/03/11 01:03:46;;;;;;;19.10;15.00;;;1.60;99.90;;;;;;4769271;29;21114;-77
2021/03/11 01:06:12;;;;;;;18.50;14.15;;;1.70;99.90;;;;;;4767303;29;20419;-75
2021/03/11 01:08:41;;;;;;;16.15;13.70;;;1.80;99.90;;;;;;4769337;29;20443;-76
2021/03/11 01:11:07;;;;;;;18.90;14.70;;;1.70;99.90;;;;;;4772693;29;20454;-76
2021/03/11 01:13:33;;;;;;;17.88;14.55;;;1.70;99.90;;;;;;4784542;29;20431;-75
2021/03/11 01:15:59;;;;;;;20.38;14.63;;;1.70;99.90;;;;;;4773671;29;20525;-77
2021/03/11 01:18:25;;;;;;;16.67;13.70;;;1.70;99.90;;;;;;4775489;29;20553;-75
2021/03/11 01:20:51;;;;;;;18.80;14.43;;;1.70;99.90;;;;;;4762782;29;20488;-76
2021/03/11 01:23:16;;;;;;;15.02;13.40;;;1.70;99.90;;;;;;4768573;29;20821;-75
2021/03/11 01:25:42;;;;;;;17.20;14.20;;;1.80;99.90;;;;;;4773610;29;20421;-78
2021/03/11 01:28:08;;;;;;;18.00;14.03;;;1.80;99.90;;;;;;4794379;29;20414;-77
2021/03/11 01:30:34;;;;;;;16.73;13.77;;;1.90;99.90;;;;;;4775391;29;20480;-76
2021/03/11 01:33:00;;;;;;;16.52;12.80;;;1.90;99.90;;;;;;4769332;29;20422;-79
2021/03/11 01:35:25;;;;;;;15.55;13.65;;;1.90;99.90;;;;;;4776026;29;20419;-77
2021/03/11 01:37:51;;;;;;;17.80;13.80;;;2.00;99.90;;;;;;4787924;29;20419;-77
2021/03/11 01:40:17;;;;;;;16.10;13.47;;;2.00;99.90;;;;;;4776025;29;20423;-78
2021/03/11 01:42:43;;;;;;;18.90;14.10;;;2.00;99.90;;;;;;4773854;29;20443;-79
2021/03/11 01:45:09;;;;;;;16.90;13.23;;;2.20;99.90;;;;;;4772637;29;20493;-77
2021/03/11 01:47:36;;;;;;;16.75;13.32;;;2.20;99.90;;;;;;4780202;29;21398;-78
2021/03/11 01:50:03;;;;;;;19.45;13.18;;;2.20;99.90;;;;;;4788799;29;20422;-77
2021/03/11 01:52:29;;;;;;;16.00;13.45;;;2.30;99.90;;;;;;4773167;29;20812;-78
2021/03/11 01:54:55;;;;;;;15.48;12.93;;;2.30;99.90;;;;;;4766038;30;20507;-77
2021/03/11 01:57:21;;;;;;;15.88;12.80;;;2.30;99.90;;;;;;4792557;29;20435;-79
2021/03/11 01:59:49;;;;;;;16.33;12.20;;;2.40;99.90;;;;;;4782030;29;20455;-77
2021/03/11 02:02:18;;;;;;;18.38;12.93;;;2.40;99.90;;;;;;4760999;29;20423;-76
2021/03/11 02:04:44;;;;;;;16.13;12.60;;;2.40;99.90;;;;;;4773488;29;20435;-78
2021/03/11 02:07:09;;;;;;;16.08;12.50;;;2.50;99.90;;;;;;4773639;29;20456;-78
2021/03/11 02:09:35;;;;;;;14.60;11.63;;;2.50;99.90;;;;;;4760487;29;20438;-77
2021/03/11 02:12:27;;;;;;;14.77;11.50;;;2.50;99.90;;;;;;4771893;29;20435;-76
2021/03/11 02:15:14;;;;;;;16.30;11.75;;;2.50;99.90;;;;;;4769542;30;20419;-76
2021/03/11 02:17:47;;;;;;;18.65;13.02;;;2.50;99.90;;;;;;4791142;29;20421;-77
2021/03/11 02:20:34;;;;;;;17.92;12.70;;;2.50;99.90;;;;;;4779935;29;20487;-77
2021/03/11 02:23:25;;;;;;;13.18;10.95;;;2.60;99.90;;;;;;4786000;29;20427;-76
2021/03/11 02:26:09;;;;;;;14.80;11.07;;;2.60;99.90;;;;;;4785851;29;20923;-77
2021/03/11 02:28:47;;;;;;;14.93;12.10;;;2.60;99.90;;;;;;4791949;29;20423;-79
2021/03/11 02:31:13;;;;;;;14.68;12.50;;;2.60;99.90;;;;;;4794574;29;20501;-76
2021/03/11 02:33:39;;;;;;;14.10;11.10;;;2.60;99.90;;;;;;4774384;29;20481;-77
2021/03/11 02:36:05;;;;;;;14.00;11.73;;;2.60;99.90;;;;;;4770443;29;20902;-77
2021/03/11 02:38:30;;;;;;;13.80;11.40;;;2.70;99.90;;;;;;4774492;29;20427;-77
2021/03/11 02:40:58;;;;;;;14.48;11.18;;;2.70;99.90;;;;;;4775838;29;20429;-76
2021/03/11 02:43:24;;;;;;;13.40;10.90;;;2.70;99.90;;;;;;4787677;29;20496;-76
2021/03/11 02:45:50;;;;;;;14.27;10.73;;;2.70;99.90;;;;;;4754061;29;20415;-77
2021/03/11 02:48:16;;;;;;;13.65;10.57;;;2.70;99.90;;;;;;4775098;29;20450;-77
2021/03/11 02:50:42;;;;;;;12.13;10.83;;;2.80;99.90;;;;;;4773154;29;20443;-78
2021/03/11 02:53:10;;;;;;;14.17;11.57;;;2.80;99.90;;;;;;4769467;29;20428;-77
2021/03/11 02:55:36;;;;;;;14.13;11.73;;;2.80;99.90;;;;;;4775042;29;20429;-77
2021/03/11 02:58:01;;;;;;;14.65;11.52;;;2.80;99.90;;;;;;4781254;29;20480;-77
2021/03/11 03:00:27;;;;;;;14.68;11.80;;;2.90;99.90;;;;;;4786301;29;20567;-77
2021/03/11 03:02:54;;;;;;;16.17;12.32;;;2.90;99.90;;;;;;4770663;29;20437;-78
2021/03/11 03:05:20;;;;;;;15.43;11.73;;;2.90;99.90;;;;;;4795397;29;20423;-79
2021/03/11 03:07:47;;;;;;;14.90;11.75;;;2.90;99.90;;;;;;4773819;29;20499;-82
2021/03/11 03:10:26;;;;;;;15.20;11.52;;;3.00;99.90;;;;;;4775995;29;20423;-79
2021/03/11 03:12:56;;;;;;;17.15;10.88;;;3.00;99.90;;;;;;4776875;29;20430;-80
2021/03/11 03:15:22;;;;;;;13.40;11.65;;;3.00;99.90;;;;;;4775195;29;20471;-80
2021/03/11 03:17:48;;;;;;;12.57;11.07;;;3.00;99.90;;;;;;4761719;29;20419;-79
2021/03/11 03:20:15;;;;;;;14.73;11.77;;;3.00;99.90;;;;;;4790847;29;20438;-79
2021/03/11 03:22:41;;;;;;;16.92;11.73;;;3.00;99.90;;;;;;4789935;29;20464;-80
2021/03/11 03:25:11;;;;;;;14.23;11.18;;;3.00;99.90;;;;;;4773888;29;20415;-80
2021/03/11 03:27:36;;;;;;;14.23;11.02;;;3.00;99.90;;;;;;4774285;29;20434;-79
2021/03/11 03:30:16;;;;;;;13.57;10.73;;;3.10;99.90;;;;;;4771001;30;20990;-79
2021/03/11 03:32:41;;;;;;;13.77;11.38;;;3.10;99.90;;;;;;4779931;29;20411;-78
2021/03/11 03:35:08;;;;;;;16.45;12.75;;;3.10;99.90;;;;;;4776108;29;20433;-76
2021/03/11 03:41:26;;;;;;;12.57;11.18;;;3.10;99.90;;;;;;4805689;29;20461;-79
2021/03/11 03:43:51;;;;;;;17.70;12.48;;;3.10;99.90;;;;;;4773795;30;20425;-77
2021/03/11 03:46:21;;;;;;;14.45;11.50;;;3.10;99.90;;;;;;4773938;29;20764;-77
2021/03/11 03:48:53;;;;;;;16.95;12.07;;;3.10;99.90;;;;;;4781073;29;20477;-77
2021/03/11 03:51:26;;;;;;;15.02;11.95;;;3.10;99.90;;;;;;4773784;29;20424;-79
2021/03/11 03:53:53;;;;;;;14.20;11.80;;;3.10;99.90;;;;;;4777213;29;20954;-77
2021/03/11 03:56:24;;;;;;;16.60;12.60;;;3.10;99.90;;;;;;4773097;29;20540;-77
2021/03/11 03:58:51;;;;;;;16.45;11.95;;;3.10;99.90;;;;;;4792595;29;20542;-77
2021/03/11 04:01:17;;;;;;;16.53;12.10;;;3.20;99.90;;;;;;4779995;29;20773;-77
2021/03/11 04:03:42;;;;;;;15.70;12.77;;;3.20;99.90;;;;;;4769329;30;20500;-79
2021/03/11 04:06:12;;;;;;;15.10;12.80;;;3.20;99.90;;;;;;4792104;29;20457;-77
2021/03/11 04:08:39;;;;;;;14.73;12.00;;;3.20;99.90;;;;;;4770037;29;20427;-78
2021/03/11 04:11:05;;;;;;;14.48;11.63;;;3.30;99.90;;;;;;4771991;29;20498;-77
2021/03/11 04:13:31;;;;;;;17.10;12.20;;;3.30;99.90;;;;;;4756539;29;20511;-77
2021/03/11 04:15:56;;;;;;;13.55;11.57;;;3.30;99.90;;;;;;4768640;29;20946;-76
2021/03/11 04:18:22;;;;;;;14.98;11.43;;;3.30;99.90;;;;;;4785091;29;20439;-75
2021/03/11 04:20:48;;;;;;;16.50;12.27;;;3.30;99.90;;;;;;4767800;29;20456;-76
2021/03/11 04:23:14;;;;;;;18.08;13.05;;;3.30;99.90;;;;;;4767598;29;20487;-77
2021/03/11 04:25:40;;;;;;;16.02;11.63;;;3.30;99.90;;;;;;4770754;29;20419;-76
2021/03/11 04:28:06;;;;;;;14.75;12.00;;;3.30;99.90;;;;;;4770702;29;20423;-76
2021/03/11 04:30:32;;;;;;;15.40;11.43;;;3.40;99.90;;;;;;4769712;29;20426;-76
2021/03/11 04:32:58;;;;;;;15.60;12.33;;;3.40;99.90;;;;;;4770531;29;20412;-77
2021/03/11 04:35:23;;;;;;;15.85;11.65;;;3.40;99.90;;;;;;4770266;29;20921;-78
2021/03/11 04:37:49;;;;;;;14.65;12.45;;;3.40;99.90;;;;;;4779948;29;20425;-77
2021/03/11 04:40:15;;;;;;;17.27;12.70;;;3.40;99.90;;;;;;4784305;29;20966;-77
2021/03/11 04:42:41;;;;;;;15.32;11.75;;;3.40;99.90;;;;;;4769833;29;20438;-76
2021/03/11 04:45:07;;;;;;;14.63;12.17;;;3.40;99.90;;;;;;4772792;29;20931;-77
2021/03/11 04:47:33;;;;;;;17.33;12.43;;;3.40;99.90;;;;;;4770552;29;20432;-77
2021/03/11 04:50:06;;;;;;;16.57;12.23;;;3.50;99.90;;;;;;4769364;29;20429;-77
2021/03/11 04:52:32;;;;;;;15.67;12.67;;;3.50;99.90;;;;;;4757736;29;20479;-76
2021/03/11 04:54:58;;;;;;;17.00;13.10;;;3.50;99.90;;;;;;4775079;29;20487;-76
2021/03/11 04:57:26;;;;;;;16.08;12.57;;;3.40;99.90;;;;;;4769126;29;20427;-79
2021/03/11 04:59:52;;;;;;;15.18;11.95;;;3.40;99.90;;;;;;4770556;29;21155;-77
2021/03/11 05:02:18;;;;;;;18.77;12.45;;;3.40;99.90;;;;;;4767487;29;20419;-76
2021/03/11 05:04:43;;;;;;;16.17;13.17;;;3.40;99.90;;;;;;4766949;29;20960;-77
2021/03/11 05:07:09;;;;;;;16.60;13.38;;;3.30;99.90;;;;;;4767996;29;20447;-77
2021/03/11 05:09:35;;;;;;;16.25;13.10;;;3.30;99.90;;;;;;4771416;29;20428;-76
2021/03/11 05:12:01;;;;;;;16.67;13.02;;;3.30;99.90;;;;;;4772992;29;20431;-76
2021/03/11 05:14:26;;;;;;;14.80;12.80;;;3.20;99.90;;;;;;4752982;29;20428;-75
2021/03/11 05:16:52;;;;;;;18.08;12.60;;;3.20;99.90;;;;;;4771052;29;20455;-78
2021/03/11 05:19:18;;;;;;;16.17;12.65;;;3.10;99.90;;;;;;4773637;29;20948;-80
2021/03/11 05:21:43;;;;;;;17.53;13.30;;;3.10;99.90;;;;;;4772205;29;21322;-79
2021/03/11 05:24:09;;;;;;;18.17;13.23;;;3.10;99.90;;;;;;4771787;29;20422;-80
2021/03/11 05:26:35;;;;;;;15.13;12.30;;;3.10;99.90;;;;;;4771242;29;20536;-77
2021/03/11 05:29:01;;;;;;;16.10;13.27;;;3.10;99.90;;;;;;4774598;29;20505;-77
2021/03/11 05:31:27;;;;;;;17.60;14.05;;;3.10;99.90;;;;;;4775335;29;20422;-77
2021/03/11 05:33:52;;;;;;;15.52;12.52;;;3.00;99.90;;;;;;4775251;29;20891;-76
2021/03/11 05:36:18;;;;;;;20.37;14.80;;;3.00;99.90;;;;;;4766075;29;20977;-77
2021/03/11 05:38:45;;;;;;;17.75;12.68;;;2.90;99.90;;;;;;4767842;29;20443;-75
2021/03/11 05:41:14;;;;;;;17.38;13.55;;;2.90;99.90;;;;;;4780099;29;20836;-76
2021/03/11 05:43:40;;;;;;;20.55;14.40;;;2.90;99.90;;;;;;4765670;29;20445;-77
2021/03/11 05:46:06;;;;;;;19.33;14.60;;;2.90;99.90;;;;;;4765278;29;21010;-79
2021/03/11 05:48:32;;;;;;;19.53;14.87;;;2.90;99.90;;;;;;4771113;29;20427;-79
2021/03/11 05:50:58;;;;;;;17.58;14.07;;;2.80;99.90;;;;;;4769560;29;21008;-80
2021/03/11 05:53:24;;;;;;;15.30;13.40;;;2.80;99.90;;;;;;4778092;29;20441;-80
2021/03/11 05:55:50;;;;;;;19.77;14.73;;;2.80;99.90;;;;;;4767003;30;20413;-78
2021/03/11 05:58:19;;;;;;;20.15;14.75;;;2.80;99.90;;;;;;4774820;29;20423;-81
2021/03/11 06:00:45;;;;;;;17.17;14.07;;;2.80;99.90;;;;;;4771630;29;20936;-79
2021/03/11 06:03:10;;;;;;;17.83;14.23;;;2.80;99.90;;;;;;4772708;29;20411;-78
2021/03/11 06:05:36;;;;;;;17.25;13.60;;;2.70;99.90;;;;;;4758487;29;20494;-79
2021/03/11 06:08:02;;;;;;;18.85;14.35;;;2.70;99.90;;;;;;4770331;29;20511;-76
2021/03/11 06:10:28;;;;;;;18.83;14.67;;;2.80;99.90;;;;;;4779774;29;20463;-76
2021/03/11 06:12:53;;;;;;;19.47;14.07;;;2.80;99.90;;;;;;4751620;29;20421;-76
2021/03/11 06:15:24;;;;;;;17.88;14.00;;;2.80;99.90;;;;;;4761119;29;20426;-76
2021/03/11 06:17:50;;;;;;;20.77;14.77;;;2.80;99.90;;;;;;4766161;29;20433;-76
2021/03/11 06:20:16;;;;;;;19.30;14.38;;;2.80;99.90;;;;;;4756054;29;20427;-75
2021/03/11 06:22:41;;;;;;;18.80;14.90;;;2.80;99.90;;;;;;4753627;29;20837;-75
2021/03/11 06:25:08;;;;;;;16.63;13.48;;;2.80;99.90;;;;;;4765712;30;20425;-75
2021/03/11 06:27:34;;;;;;;17.70;14.02;;;2.90;99.90;;;;;;4784486;29;20458;-77
2021/03/11 06:30:00;;;;;;;20.77;14.43;;;2.90;99.90;;;;;;4772513;30;20482;-77
2021/03/11 06:32:27;;;;;;;17.50;13.90;;;2.90;99.90;;;;;;4770586;29;21025;-76
2021/03/11 06:34:53;;;;;;;18.35;15.20;;;2.90;99.90;;;;;;4774466;29;20787;-75
2021/03/11 06:37:35;;;;;;;17.15;14.15;;;2.90;99.90;;;;;;4773986;29;20506;-75
2021/03/11 06:40:21;;;;;;;15.80;13.65;;;3.00;99.90;;;;;;4761241;29;20425;-75
2021/03/11 06:42:48;;;;;;;16.45;14.18;;;3.00;99.90;;;;;;4771095;29;20435;-78
2021/03/11 06:45:27;;;;;;;17.95;13.30;;;3.00;99.90;;;;;;4786464;29;20556;-75
2021/03/11 06:48:13;;;;;;;19.92;14.43;;;3.00;99.90;;;;;;4782063;29;20412;-78
2021/03/11 06:50:39;;;;;;;17.17;14.35;;;3.00;99.90;;;;;;4784445;29;20435;-75
2021/03/11 06:53:05;;;;;;;16.58;14.00;;;3.10;99.90;;;;;;4771555;30;20429;-75
2021/03/11 06:55:31;;;;;;;17.20;14.07;;;3.10;99.90;;;;;;4793352;29;20407;-75
2021/03/11 06:58:14;;;;;;;18.70;13.48;;;3.10;99.90;;;;;;4772732;29;20479;-76
2021/03/11 07:00:40;;;;;;;19.83;14.75;;;3.20;99.90;;;;;;4766495;29;20505;-76
2021/03/11 07:03:05;;;;;;;15.70;13.13;;;3.20;99.90;;;;;;4776254;30;21069;-76
2021/03/11 07:05:32;;;;;;;17.17;13.30;;;3.20;99.90;;;;;;4770272;29;20412;-76
2021/03/11 07:08:24;;;;;;;15.88;13.25;;;3.30;99.90;;;;;;4774087;29;20451;-76
2021/03/11 07:10:50;;;;;;;18.35;13.50;;;3.30;99.90;;;;;;4775160;29;20422;-76
2021/03/11 07:13:16;;;;;;;17.35;13.57;;;3.40;99.90;;;;;;4788276;29;20426;-74
2021/03/11 07:15:41;;;;;;;15.90;13.40;;;3.40;99.90;;;;;;4773710;29;20465;-79
2021/03/11 07:18:10;;;;;;;17.15;13.80;;;3.40;99.90;;;;;;4778406;29;20538;-75
2021/03/11 07:20:36;;;;;;;18.98;13.55;;;3.30;99.90;;;;;;4772636;29;20465;-75
2021/03/11 07:23:11;;;;;;;17.25;14.18;;;3.30;99.90;;;;;;4776351;29;20451;-75
2021/03/11 07:25:37;;;;;;;18.00;13.88;;;3.30;99.90;;;;;;4753895;29;20419;-76
2021/03/11 07:28:04;;;;;;;15.82;13.93;;;3.30;99.90;;;;;;4789788;29;20417;-75
2021/03/11 07:30:31;;;;;;;17.00;14.20;;;3.30;99.90;;;;;;4780942;29;20422;-76
2021/03/11 07:33:03;;;;;;;16.13;13.45;;;3.20;99.90;;;;;;4774278;29;20438;-77
2021/03/11 07:35:30;;;;;;;16.87;14.27;;;3.30;99.90;;;;;;4771189;29;21237;-76
2021/03/11 07:37:58;;;;;;;17.08;13.07;;;3.30;99.90;;;;;;4784224;29;20414;-76
2021/03/11 07:40:25;;;;;;;17.83;13.20;;;3.20;99.90;;;;;;4754792;29;20435;-76
2021/03/11 07:42:51;;;;;;;15.80;13.15;;;3.30;99.90;;;;;;4776662;29;20427;-76
2021/03/11 07:45:25;;;;;;;15.25;12.98;;;3.30;99.90;;;;;;4779302;29;20420;-78
2021/03/11 07:47:51;;;;;;;16.33;13.10;;;3.30;99.90;;;;;;4776473;30;20481;-78
2021/03/11 07:50:17;;;;;;;15.95;12.95;;;3.30;99.90;;;;;;4769218;29;20459;-76
2021/03/11 07:52:43;;;;;;;14.90;12.30;;;3.30;99.90;;;;;;4767230;29;20436;-76
2021/03/11 07:55:10;;;;;;;17.08;13.93;;;3.30;99.90;;;;;;4769457;29;20425;-76
2021/03/11 07:57:39;;;;;;;17.60;14.35;;;3.30;99.90;;;;;;4768826;29;20508;-76
2021/03/11 08:00:07;;;;;;;16.63;14.10;;;3.40;99.90;;;;;;4781215;29;20434;-76
2021/03/11 08:02:39;;;;;;;17.23;14.13;;;3.30;99.90;;;;;;4769041;29;20423;-75
2021/03/11 08:05:05;;;;;;;15.70;13.30;;;3.40;99.90;;;;;;4767199;30;20468;-76
2021/03/11 08:07:31;;;;;;;17.27;13.50;;;3.30;99.90;;;;;;4762149;29;20494;-76
2021/03/11 08:09:58;;;;;;;16.42;12.75;;;3.30;99.90;;;;;;4779186;29;20498;-76
2021/03/11 08:12:30;;;;;;;14.30;12.57;;;3.30;99.90;;;;;;4770511;29;20409;-76
2021/03/11 08:14:57;;;;;;;16.88;13.73;;;3.30;99.90;;;;;;4774937;29;20413;-76
2021/03/11 08:17:43;;;;;;;16.42;13.57;;;3.30;99.90;;;;;;4774194;29;20923;-78
2021/03/11 08:20:31;;;;;;;16.25;14.00;;;3.30;99.90;;;;;;4779206;29;20415;-77
2021/03/11 08:22:57;;;;;;;16.30;13.35;;;3.30;99.90;;;;;;4790712;29;20789;-77
2021/03/11 08:25:32;;;;;;;16.95;13.52;;;3.40;99.90;;;;;;4796092;29;20435;-78
2021/03/11 08:27:58;;;;;;;17.27;13.10;;;3.30;99.90;;;;;;4794230;29;20421;-76
2021/03/11 08:30:42;;;;;;;17.52;13.40;;;3.30;99.90;;;;;;4779592;29;20422;-77
2021/03/11 08:33:27;;;;;;;16.33;13.80;;;3.30;99.90;;;;;;4803290;29;20425;-77
2021/03/11 08:35:56;;;;;;;14.40;12.68;;;3.40;99.90;;;;;;4786048;29;20993;-76
2021/03/11 08:38:22;;;;;;;18.80;13.65;;;3.40;99.90;;;;;;4773550;29;20825;-77
2021/03/11 08:40:55;;;;;;;15.30;13.27;;;3.50;99.90;;;;;;4792755;29;20428;-77
2021/03/11 08:43:36;;;;;;;17.65;14.13;;;3.50;99.90;;;;;;4778092;29;20423;-77
2021/03/11 08:46:02;;;;;;;15.55;13.68;;;3.50;99.90;;;;;;4783726;29;20415;-77
2021/03/11 08:48:41;;;;;;;14.63;12.77;;;3.50;99.90;;;;;;4806842;29;20997;-76
2021/03/11 08:51:30;;;;;;;15.73;13.75;;;3.60;99.90;;;;;;4780721;29;20419;-77
2021/03/11 08:54:01;;;;;;;18.05;13.93;;;3.60;99.90;;;;;;4777347;29;20429;-77
2021/03/11 08:56:26;;;;;;;17.73;13.43;;;3.60;99.90;;;;;;4756369;29;20465;-76
2021/03/11 08:58:59;;;;;;;16.63;13.60;;;3.60;99.90;;;;;;4794607;29;20421;-76
2021/03/11 09:01:37;;;;;;;17.38;12.82;;;3.70;99.90;;;;;;4771083;29;20487;-77
2021/03/11 09:04:06;;;;;;;14.05;12.27;;;3.70;99.90;;;;;;4784421;29;20430;-79
2021/03/11 09:06:51;;;;;;;14.30;11.87;;;3.80;99.90;;;;;;4772298;29;20429;-78
2021/03/11 09:09:17;;;;;;;17.85;12.30;;;3.80;99.90;;;;;;4801806;29;20925;-79
2021/03/11 09:11:55;;;;;;;14.10;12.03;;;3.80;99.90;;;;;;4776856;29;20427;-78
2021/03/11 09:14:23;;;;;;;14.13;11.90;;;3.80;99.90;;;;;;4739945;30;20441;-79
2021/03/11 09:16:49;;;;;;;13.93;11.70;;;3.90;99.90;;;;;;4771667;29;20417;-79
2021/03/11 09:19:15;;;;;;;13.45;11.75;;;3.90;99.90;;;;;;4776693;29;20438;-79
2021/03/11 09:21:41;;;;;;;13.35;11.38;;;3.90;99.90;;;;;;4780666;29;20518;-78
2021/03/11 09:24:19;;;;;;;13.10;11.77;;;4.00;99.90;;;;;;4766694;29;20452;-78
2021/03/11 09:26:45;;;;;;;13.73;11.82;;;4.00;99.90;;;;;;4761145;29;20825;-80
2021/03/11 09:29:12;;;;;;;14.55;11.45;;;4.10;99.90;;;;;;4770842;29;20476;-80
2021/03/11 09:31:38;;;;;;;14.57;12.07;;;4.10;99.90;;;;;;4777692;29;20411;-79
2021/03/11 09:34:04;;;;;;;14.13;12.07;;;4.20;99.90;;;;;;4772211;29;20415;-78
2021/03/11 09:36:29;;;;;;;13.43;11.87;;;4.20;99.90;;;;;;4771271;29;20880;-79
2021/03/11 09:39:05;;;;;;;13.75;11.27;;;4.20;99.90;;;;;;4786294;29;20912;-79
2021/03/11 09:41:31;;;;;;;14.77;11.35;;;4.20;99.90;;;;;;4771937;29;20453;-79
2021/03/11 09:44:06;;;;;;;13.98;11.52;;;4.40;99.90;;;;;;4771963;29;20431;-79
2021/03/11 09:46:32;;;;;;;15.35;11.82;;;4.30;99.90;;;;;;4782148;29;20431;-80
2021/03/11 09:48:58;;;;;;;12.25;10.98;;;4.30;99.90;;;;;;4768621;29;20474;-79
2021/03/11 09:51:31;;;;;;;12.35;10.90;;;4.30;99.90;;;;;;4767377;29;20417;-78
2021/03/11 09:53:58;;;;;;;13.30;11.43;;;4.40;99.90;;;;;;4778938;29;20415;-79
2021/03/11 09:56:30;;;;;;;12.63;10.10;;;4.40;99.90;;;;;;4778002;29;20439;-80
2021/03/11 09:58:57;;;;;;;11.05;9.93;;;4.50;99.90;;;;;;4786767;29;20410;-78
2021/03/11 10:01:37;;;;;;;12.90;10.35;;;4.50;99.90;;;;;;4781549;29;20433;-78
2021/03/11 10:04:18;;;;;;;11.60;10.00;;;4.50;99.90;;;;;;4776422;29;20957;-79
2021/03/11 10:06:53;;;;;;;12.30;9.90;;;4.60;99.90;;;;;;4775974;29;20427;-79
2021/03/11 10:09:19;;;;;;;11.90;10.60;;;4.70;99.90;;;;;;4770419;30;20428;-78
2021/03/11 10:11:46;;;;;;;11.73;9.55;;;4.70;99.90;;;;;;4758994;30;20417;-81
2021/03/11 10:14:26;;;;;;;13.55;10.93;;;4.70;99.90;;;;;;4777176;29;20419;-79
2021/03/11 10:16:52;;;;;;;12.60;10.53;;;4.80;99.90;;;;;;4785713;29;20410;-79
2021/03/11 10:19:22;;;;;;;11.45;9.98;;;4.80;99.90;;;;;;4778343;29;20441;-78
2021/03/11 10:21:49;;;;;;;12.98;10.55;;;4.70;99.90;;;;;;4785152;29;20436;-78
2021/03/11 10:24:29;;;;;;;12.23;9.57;;;4.80;99.90;;;;;;4773781;29;20403;-80
2021/03/11 10:26:55;;;;;;;11.27;10.07;;;4.80;99.90;;;;;;4760369;29;20418;-78
2021/03/11 10:29:21;;;;;;;12.00;10.50;;;4.80;99.90;;;;;;4775633;29;20407;-79
2021/03/11 10:31:47;;;;;;;10.30;9.18;;;4.80;99.90;;;;;;4776888;29;20510;-79
2021/03/11 10:34:12;;;;;;;11.27;10.13;;;4.80;99.90;;;;;;4789220;29;20416;-80
2021/03/11 10:36:38;;;;;;;14.77;10.17;;;4.90;99.90;;;;;;4773181;29;20487;-79
2021/03/11 10:39:14;;;;;;;11.63;10.27;;;4.90;99.90;;;;;;4774602;29;20405;-80
2021/03/11 10:42:02;;;;;;;10.90;9.37;;;4.90;99.90;;;;;;4776098;29;20457;-79
2021/03/11 10:44:33;;;;;;;13.95;10.55;;;4.90;99.90;;;;;;4777430;29;21109;-80
2021/03/11 10:47:31;;;;;;;14.37;10.73;;;5.00;99.90;;;;;;4764742;29;20459;-79
2021/03/11 10:49:57;;;;;;;14.05;10.60;;;5.00;99.90;;;;;;4749193;29;20411;-80
2021/03/11 10:52:23;;;;;;;15.93;10.23;;;5.00;99.90;;;;;;4775136;30;20432;-80
2021/03/11 10:54:48;;;;;;;13.43;11.30;;;5.10;99.90;;;;;;4783873;29;20411;-81
2021/03/11 10:57:16;;;;;;;14.00;11.48;;;5.00;99.90;;;;;;4786034;29;20414;-81
2021/03/11 10:59:58;;;;;;;12.38;11.15;;;5.10;99.90;;;;;;4777631;29;20479;-81
2021/03/11 11:02:28;;;;;;;12.48;10.88;;;5.10;99.90;;;;;;4776810;29;20444;-81
2021/03/11 11:04:55;;;;;;;13.77;10.93;;;5.10;99.90;;;;;;4774160;30;20432;-78
2021/03/11 11:07:21;;;;;;;14.75;10.88;;;5.00;99.90;;;;;;4759343;29;20481;-81
2021/03/11 11:09:47;;;;;;;14.40;11.48;;;5.20;99.90;;;;;;4790398;29;21279;-80
2021/03/11 11:12:15;;;;;;;13.67;11.47;;;5.10;99.90;;;;;;4777825;29;20415;-80
2021/03/11 11:14:41;;;;;;;12.43;11.13;;;5.10;99.90;;;;;;4780565;29;20423;-81
2021/03/11 11:17:09;;;;;;;16.75;12.32;;;5.10;99.90;;;;;;4779095;29;20773;-80
2021/03/11 11:19:34;;;;;;;12.25;10.82;;;5.10;99.90;;;;;;4778678;29;20459;-82
2021/03/11 11:22:01;;;;;;;13.68;12.20;;;5.10;99.90;;;;;;4775309;29;20490;-80
2021/03/11 11:24:27;;;;;;;13.27;11.55;;;5.10;99.90;;;;;;4773945;29;20427;-81
2021/03/11 11:26:55;;;;;;;13.23;11.23;;;5.10;99.90;;;;;;4767729;29;20411;-80
2021/03/11 11:29:22;;;;;;;14.13;11.65;;;5.20;99.90;;;;;;4789132;29;20423;-78
2021/03/11 11:31:48;;;;;;;15.50;12.00;;;5.10;99.90;;;;;;4785042;29;20411;-80
2021/03/11 11:34:14;;;;;;;12.63;11.23;;;5.10;99.90;;;;;;4779863;29;20449;-81
2021/03/11 11:36:41;;;;;;;14.87;12.33;;;5.20;99.90;;;;;;4775871;29;20418;-79
2021/03/11 11:39:07;;;;;;;14.90;12.20;;;5.20;99.90;;;;;;4776693;29;20431;-80
2021/03/11 11:41:33;;;;;;;15.32;11.82;;;5.20;99.90;;;;;;4772273;29;20484;-79
2021/03/11 11:43:59;;;;;;;12.57;11.30;;;5.20;99.90;;;;;;4777745;29;20449;-80
2021/03/11 11:46:28;;;;;;;14.32;11.57;;;5.30;99.90;;;;;;4775872;29;20433;-78
2021/03/11 11:48:55;;;;;;;14.27;12.05;;;5.30;99.90;;;;;;4785915;29;20421;-81
2021/03/11 11:51:21;;;;;;;12.70;11.40;;;5.30;99.90;;;;;;4793787;29;20468;-80
2021/03/11 11:53:46;;;;;;;12.52;11.23;;;5.40;99.90;;;;;;4775971;29;20419;-81
2021/03/11 11:56:12;;;;;;;13.70;11.55;;;5.40;99.90;;;;;;4781730;29;20491;-80
2021/03/11 11:58:44;;;;;;;12.50;11.10;;;5.50;99.90;;;;;;4791098;29;20417;-78
2021/03/11 12:01:11;;;;;;;12.60;11.32;;;5.50;99.90;;;;;;4778279;29;20467;-80
2021/03/11 12:03:37;;;;;;;13.15;11.68;;;5.50;99.90;;;;;;4771249;29;20424;-80
2021/03/11 12:06:04;;;;;;;14.38;11.80;;;5.60;99.90;;;;;;4774007;29;20827;-80
2021/03/11 12:08:30;;;;;;;15.18;11.70;;;5.60;99.90;;;;;;4781391;29;20515;-80
2021/03/11 12:10:55;;;;;;;11.77;10.68;;;5.60;99.90;;;;;;4767091;29;20485;-80
2021/03/11 12:13:24;;;;;;;12.52;10.40;;;5.60;99.90;;;;;;4760233;29;20450;-80
2021/03/11 12:15:50;;;;;;;13.55;12.02;;;5.60;99.90;;;;;;4777118;29;20664;-80
2021/03/11 12:18:16;;;;;;;13.45;11.63;;;5.60;99.90;;;;;;4758893;29;20493;-80
2021/03/11 12:20:42;;;;;;;13.80;11.65;;;5.70;99.90;;;;;;4793600;29;20429;-79
2021/03/11 12:23:08;;;;;;;13.77;11.57;;;5.70;99.90;;;;;;4772661;29;20492;-82
2021/03/11 12:25:34;;;;;;;14.13;11.68;;;5.80;99.90;;;;;;4788251;29;20418;-80
2021/03/11 12:27:59;;;;;;;14.68;11.25;;;5.90;99.90;;;;;;4784143;29;20912;-80
2021/03/11 12:30:25;;;;;;;15.47;12.00;;;5.90;99.90;;;;;;4799281;29;20422;-79
2021/03/11 12:32:51;;;;;;;15.37;13.33;;;6.10;99.90;;;;;;4767048;30;20493;-79
2021/03/11 12:35:17;;;;;;;14.23;12.15;;;6.30;99.90;;;;;;4770178;29;20416;-79
2021/03/11 12:37:43;;;;;;;15.52;12.82;;;6.50;99.90;;;;;;4765722;29;20446;-79
2021/03/11 12:40:09;;;;;;;15.00;12.02;;;6.70;99.90;;;;;;4770206;29;20509;-77
2021/03/11 12:42:35;;;;;;;13.07;10.32;;;6.80;99.90;;;;;;4778313;29;20964;-80
2021/03/11 12:45:00;;;;;;;15.40;11.63;;;6.80;99.90;;;;;;4773436;29;20422;-80
2021/03/11 12:47:26;;;;;;;12.93;11.50;;;6.90;99.90;;;;;;4777437;29;20412;-80